sensor_id;sensor_type;location;lat;lon;timestamp;P1;durP1;ratioP1;P2;durP2;ratioP2
32082;SDS011;18597;48.328;7.932;2022-09-21T00:01:54;4.90;;;3.27;;
32082;SDS011;18597;48.328;7.932;2022-09-21T00:04:23;2.90;;;2.70;;
32082;SDS011;18597;48.328;7.932;2022-09-21T00:06:49;4.10;;;2.70;;
32082;SDS011;18597;48.328;7.932;2022-09-21T00:09:14;3.47;;;3.17;;
32082;SDS011;18597;48.328;7.932;2022-09-21T00:11:40;4.87;;;3.60;;
32082;SDS011;18597;48.328;7.932;2022-09-21T00:14:08;3.47;;;2.60;;
32082;SDS011;18597;48.328;7.932;2022-09-21T00:16:38;7.33;;;3.50;;
32082;SDS011;18597;48.328;7.932;2022-09-21T00:19:06;3.50;;;3.20;;
32082;SDS011;18597;48.328;7.932;2022-09-21T00:21:33;5.10;;;3.13;;
32082;SDS011;18597;48.328;7.932;2022-09-21T00:24:00;3.83;;;3.37;;
32082;SDS011;18597;48.328;7.932;2022-09-21T00:26:27;3.90;;;3.70;;
32082;SDS011;18597;48.328;7.932;2022-09-21T00:28:54;3.77;;;3.33;;
32082;SDS011;18597;48.328;7.932;2022-09-21T00:31:22;20.40;;;7.33;;
32082;SDS011;18597;48.328;7.932;2022-09-21T00:33:48;10.63;;;7.13;;
32082;SDS011;18597;48.328;7.932;2022-09-21T00:36:15;6.77;;;5.20;;
32082;SDS011;18597;48.328;7.932;2022-09-21T00:38:44;6.00;;;4.00;;
32082;SDS011;18597;48.328;7.932;2022-09-21T00:41:16;7.53;;;3.80;;
32082;SDS011;18597;48.328;7.932;2022-09-21T00:43:45;3.40;;;3.23;;
32082;SDS011;18597;48.328;7.932;2022-09-21T00:46:32;9.40;;;4.17;;
32082;SDS011;18597;48.328;7.932;2022-09-21T00:49:00;6.27;;;3.03;;
32082;SDS011;18597;48.328;7.932;2022-09-21T00:51:26;9.83;;;3.83;;
32082;SDS011;18597;48.328;7.932;2022-09-21T00:53:55;8.07;;;4.10;;
32082;SDS011;18597;48.328;7.932;2022-09-21T00:56:26;8.23;;;4.43;;
32082;SDS011;18597;48.328;7.932;2022-09-21T00:58:53;8.73;;;4.13;;
32082;SDS011;18597;48.328;7.932;2022-09-21T01:01:19;9.43;;;3.33;;
32082;SDS011;18597;48.328;7.932;2022-09-21T01:03:46;4.77;;;3.53;;
32082;SDS011;18597;48.328;7.932;2022-09-21T01:06:16;10.37;;;3.93;;
32082;SDS011;18597;48.328;7.932;2022-09-21T01:08:45;2.97;;;2.63;;
32082;SDS011;18597;48.328;7.932;2022-09-21T01:11:28;4.57;;;4.10;;
32082;SDS011;18597;48.328;7.932;2022-09-21T01:18:34;6.50;;;4.27;;
32082;SDS011;18597;48.328;7.932;2022-09-21T01:20:48;5.20;;;4.77;;
32082;SDS011;18597;48.328;7.932;2022-09-21T01:23:43;6.40;;;4.87;;
32082;SDS011;18597;48.328;7.932;2022-09-21T01:29:48;4.43;;;4.13;;
32082;SDS011;18597;48.328;7.932;2022-09-21T01:35:02;5.13;;;4.63;;
32082;SDS011;18597;48.328;7.932;2022-09-21T01:37:40;7.90;;;4.53;;
32082;SDS011;18597;48.328;7.932;2022-09-21T01:40:14;7.93;;;3.83;;
32082;SDS011;18597;48.328;7.932;2022-09-21T01:42:49;5.27;;;4.67;;
32082;SDS011;18597;48.328;7.932;2022-09-21T01:45:20;6.13;;;4.50;;
32082;SDS011;18597;48.328;7.932;2022-09-21T01:47:54;4.17;;;3.83;;
32082;SDS011;18597;48.328;7.932;2022-09-21T01:50:24;4.00;;;3.57;;
32082;SDS011;18597;48.328;7.932;2022-09-21T01:52:59;4.37;;;3.90;;
32082;SDS011;18597;48.328;7.932;2022-09-21T01:55:36;4.23;;;3.93;;
32082;SDS011;18597;48.328;7.932;2022-09-21T01:58:11;4.80;;;3.93;;
32082;SDS011;18597;48.328;7.932;2022-09-21T02:00:59;8.97;;;3.87;;
32082;SDS011;18597;48.328;7.932;2022-09-21T02:03:28;9.23;;;5.50;;
32082;SDS011;18597;48.328;7.932;2022-09-21T02:06:01;14.83;;;5.97;;
32082;SDS011;18597;48.328;7.932;2022-09-21T02:08:30;8.93;;;4.50;;
32082;SDS011;18597;48.328;7.932;2022-09-21T02:10:58;4.53;;;4.23;;
32082;SDS011;18597;48.328;7.932;2022-09-21T02:13:28;7.63;;;3.93;;
32082;SDS011;18597;48.328;7.932;2022-09-21T02:16:03;5.40;;;4.57;;
32082;SDS011;18597;48.328;7.932;2022-09-21T02:19:07;5.53;;;4.13;;
32082;SDS011;18597;48.328;7.932;2022-09-21T02:22:04;4.20;;;3.37;;
32082;SDS011;18597;48.328;7.932;2022-09-21T02:25:05;6.33;;;3.67;;
32082;SDS011;18597;48.328;7.932;2022-09-21T02:27:56;3.30;;;3.20;;
32082;SDS011;18597;48.328;7.932;2022-09-21T02:30:41;5.43;;;3.37;;
32082;SDS011;18597;48.328;7.932;2022-09-21T02:33:20;3.70;;;3.40;;
32082;SDS011;18597;48.328;7.932;2022-09-21T02:36:04;5.13;;;4.20;;
32082;SDS011;18597;48.328;7.932;2022-09-21T02:38:42;4.47;;;4.07;;
32082;SDS011;18597;48.328;7.932;2022-09-21T02:41:22;7.13;;;4.37;;
32082;SDS011;18597;48.328;7.932;2022-09-21T02:43:59;5.63;;;3.90;;
32082;SDS011;18597;48.328;7.932;2022-09-21T02:47:07;4.70;;;3.30;;
32082;SDS011;18597;48.328;7.932;2022-09-21T02:49:24;4.30;;;3.70;;
32082;SDS011;18597;48.328;7.932;2022-09-21T02:51:57;7.50;;;3.80;;
32082;SDS011;18597;48.328;7.932;2022-09-21T02:54:29;5.13;;;3.90;;
32082;SDS011;18597;48.328;7.932;2022-09-21T02:56:58;14.90;;;4.63;;
32082;SDS011;18597;48.328;7.932;2022-09-21T02:59:26;4.53;;;3.93;;
32082;SDS011;18597;48.328;7.932;2022-09-21T03:01:52;3.10;;;2.77;;
32082;SDS011;18597;48.328;7.932;2022-09-21T03:04:19;3.50;;;3.33;;
32082;SDS011;18597;48.328;7.932;2022-09-21T03:06:47;3.63;;;3.33;;
32082;SDS011;18597;48.328;7.932;2022-09-21T03:09:13;7.63;;;4.40;;
32082;SDS011;18597;48.328;7.932;2022-09-21T03:11:38;6.20;;;3.87;;
32082;SDS011;18597;48.328;7.932;2022-09-21T03:14:07;4.30;;;3.80;;
32082;SDS011;18597;48.328;7.932;2022-09-21T03:16:34;7.63;;;3.63;;
32082;SDS011;18597;48.328;7.932;2022-09-21T03:19:00;6.00;;;4.97;;
32082;SDS011;18597;48.328;7.932;2022-09-21T03:21:26;6.73;;;3.60;;
32082;SDS011;18597;48.328;7.932;2022-09-21T03:23:53;4.63;;;4.20;;
32082;SDS011;18597;48.328;7.932;2022-09-21T03:26:18;5.20;;;3.67;;
32082;SDS011;18597;48.328;7.932;2022-09-21T03:28:46;4.83;;;4.43;;
32082;SDS011;18597;48.328;7.932;2022-09-21T03:31:14;4.10;;;3.70;;
32082;SDS011;18597;48.328;7.932;2022-09-21T03:33:40;6.23;;;3.30;;
32082;SDS011;18597;48.328;7.932;2022-09-21T03:36:06;4.10;;;3.80;;
32082;SDS011;18597;48.328;7.932;2022-09-21T03:38:32;4.73;;;4.33;;
32082;SDS011;18597;48.328;7.932;2022-09-21T03:40:58;14.33;;;4.43;;
32082;SDS011;18597;48.328;7.932;2022-09-21T03:43:24;8.40;;;3.70;;
32082;SDS011;18597;48.328;7.932;2022-09-21T03:45:51;4.23;;;3.93;;
32082;SDS011;18597;48.328;7.932;2022-09-21T03:48:17;10.30;;;4.93;;
32082;SDS011;18597;48.328;7.932;2022-09-21T03:50:43;8.57;;;5.23;;
32082;SDS011;18597;48.328;7.932;2022-09-21T03:53:09;8.03;;;5.03;;
32082;SDS011;18597;48.328;7.932;2022-09-21T03:55:36;6.37;;;4.40;;
32082;SDS011;18597;48.328;7.932;2022-09-21T03:58:02;4.20;;;3.80;;
32082;SDS011;18597;48.328;7.932;2022-09-21T04:00:28;6.50;;;5.07;;
32082;SDS011;18597;48.328;7.932;2022-09-21T04:02:54;7.27;;;4.80;;
32082;SDS011;18597;48.328;7.932;2022-09-21T04:05:20;4.87;;;4.47;;
32082;SDS011;18597;48.328;7.932;2022-09-21T04:07:47;5.13;;;3.80;;
32082;SDS011;18597;48.328;7.932;2022-09-21T04:10:14;11.00;;;4.43;;
32082;SDS011;18597;48.328;7.932;2022-09-21T04:12:43;5.57;;;4.50;;
32082;SDS011;18597;48.328;7.932;2022-09-21T04:15:11;9.63;;;5.30;;
32082;SDS011;18597;48.328;7.932;2022-09-21T04:17:40;8.37;;;5.93;;
32082;SDS011;18597;48.328;7.932;2022-09-21T04:20:06;8.43;;;6.40;;
32082;SDS011;18597;48.328;7.932;2022-09-21T04:22:34;6.90;;;6.13;;
32082;SDS011;18597;48.328;7.932;2022-09-21T04:25:02;8.63;;;6.60;;
32082;SDS011;18597;48.328;7.932;2022-09-21T04:27:30;16.33;;;7.93;;
32082;SDS011;18597;48.328;7.932;2022-09-21T04:29:57;7.70;;;5.97;;
32082;SDS011;18597;48.328;7.932;2022-09-21T04:32:24;7.53;;;5.80;;
32082;SDS011;18597;48.328;7.932;2022-09-21T04:34:50;6.20;;;5.07;;
32082;SDS011;18597;48.328;7.932;2022-09-21T04:37:16;14.03;;;5.43;;
32082;SDS011;18597;48.328;7.932;2022-09-21T04:39:42;7.00;;;4.40;;
32082;SDS011;18597;48.328;7.932;2022-09-21T04:42:08;5.57;;;4.47;;
32082;SDS011;18597;48.328;7.932;2022-09-21T04:44:34;6.60;;;3.87;;
32082;SDS011;18597;48.328;7.932;2022-09-21T04:47:03;5.03;;;4.70;;
32082;SDS011;18597;48.328;7.932;2022-09-21T04:49:29;7.30;;;4.87;;
32082;SDS011;18597;48.328;7.932;2022-09-21T04:51:54;5.80;;;5.13;;
32082;SDS011;18597;48.328;7.932;2022-09-21T04:54:20;9.10;;;5.10;;
32082;SDS011;18597;48.328;7.932;2022-09-21T04:56:46;6.30;;;4.70;;
32082;SDS011;18597;48.328;7.932;2022-09-21T04:59:12;6.97;;;5.17;;
32082;SDS011;18597;48.328;7.932;2022-09-21T05:01:38;12.00;;;7.53;;
32082;SDS011;18597;48.328;7.932;2022-09-21T05:04:03;17.97;;;5.77;;
32082;SDS011;18597;48.328;7.932;2022-09-21T05:06:30;12.57;;;5.00;;
32082;SDS011;18597;48.328;7.932;2022-09-21T05:08:57;6.57;;;5.13;;
32082;SDS011;18597;48.328;7.932;2022-09-21T05:11:43;7.23;;;6.17;;
32082;SDS011;18597;48.328;7.932;2022-09-21T05:14:09;12.83;;;6.97;;
32082;SDS011;18597;48.328;7.932;2022-09-21T05:16:37;9.93;;;6.20;;
32082;SDS011;18597;48.328;7.932;2022-09-21T05:19:03;15.93;;;6.80;;
32082;SDS011;18597;48.328;7.932;2022-09-21T05:21:29;16.20;;;5.37;;
32082;SDS011;18597;48.328;7.932;2022-09-21T05:23:55;6.63;;;5.53;;
32082;SDS011;18597;48.328;7.932;2022-09-21T05:26:22;7.67;;;5.13;;
32082;SDS011;18597;48.328;7.932;2022-09-21T05:28:48;13.47;;;7.03;;
32082;SDS011;18597;48.328;7.932;2022-09-21T05:33:51;7.50;;;5.93;;
32082;SDS011;18597;48.328;7.932;2022-09-21T05:36:29;6.90;;;6.30;;
32082;SDS011;18597;48.328;7.932;2022-09-21T05:39:13;12.67;;;7.17;;
32082;SDS011;18597;48.328;7.932;2022-09-21T05:41:39;9.07;;;6.60;;
32082;SDS011;18597;48.328;7.932;2022-09-21T05:44:06;12.13;;;7.80;;
32082;SDS011;18597;48.328;7.932;2022-09-21T05:46:37;8.63;;;7.80;;
32082;SDS011;18597;48.328;7.932;2022-09-21T05:49:33;9.17;;;8.27;;
32082;SDS011;18597;48.328;7.932;2022-09-21T05:52:13;15.77;;;8.77;;
32082;SDS011;18597;48.328;7.932;2022-09-21T06:01:28;13.03;;;8.80;;
32082;SDS011;18597;48.328;7.932;2022-09-21T06:04:24;9.67;;;7.40;;
32082;SDS011;18597;48.328;7.932;2022-09-21T06:06:50;6.93;;;6.30;;
32082;SDS011;18597;48.328;7.932;2022-09-21T06:09:16;7.10;;;6.40;;
32082;SDS011;18597;48.328;7.932;2022-09-21T06:11:44;6.20;;;5.70;;
32082;SDS011;18597;48.328;7.932;2022-09-21T06:14:11;13.73;;;7.37;;
32082;SDS011;18597;48.328;7.932;2022-09-21T06:16:37;21.67;;;8.87;;
32082;SDS011;18597;48.328;7.932;2022-09-21T06:19:04;9.60;;;7.87;;
32082;SDS011;18597;48.328;7.932;2022-09-21T06:21:31;7.97;;;6.90;;
32082;SDS011;18597;48.328;7.932;2022-09-21T06:23:57;12.93;;;7.63;;
32082;SDS011;18597;48.328;7.932;2022-09-21T06:26:22;10.90;;;6.20;;
32082;SDS011;18597;48.328;7.932;2022-09-21T06:28:48;7.23;;;6.53;;
32082;SDS011;18597;48.328;7.932;2022-09-21T06:31:14;8.40;;;5.50;;
32082;SDS011;18597;48.328;7.932;2022-09-21T06:33:40;8.77;;;4.33;;
32082;SDS011;18597;48.328;7.932;2022-09-21T06:36:06;5.00;;;4.60;;
32082;SDS011;18597;48.328;7.932;2022-09-21T06:38:31;5.97;;;5.40;;
32082;SDS011;18597;48.328;7.932;2022-09-21T06:41:00;6.97;;;6.10;;
32082;SDS011;18597;48.328;7.932;2022-09-21T06:43:28;5.60;;;5.10;;
32082;SDS011;18597;48.328;7.932;2022-09-21T06:45:56;9.10;;;3.70;;
32082;SDS011;18597;48.328;7.932;2022-09-21T06:48:24;3.63;;;3.43;;
32082;SDS011;18597;48.328;7.932;2022-09-21T06:50:59;4.13;;;3.83;;
32082;SDS011;18597;48.328;7.932;2022-09-21T06:53:27;3.40;;;3.10;;
32082;SDS011;18597;48.328;7.932;2022-09-21T06:56:02;3.53;;;3.37;;
32082;SDS011;18597;48.328;7.932;2022-09-21T06:58:32;3.10;;;3.00;;
32082;SDS011;18597;48.328;7.932;2022-09-21T07:01:04;3.73;;;3.47;;
32082;SDS011;18597;48.328;7.932;2022-09-21T07:03:33;3.90;;;2.33;;
32082;SDS011;18597;48.328;7.932;2022-09-21T07:05:59;2.50;;;2.50;;
32082;SDS011;18597;48.328;7.932;2022-09-21T07:08:25;2.80;;;2.67;;
32082;SDS011;18597;48.328;7.932;2022-09-21T07:10:51;2.50;;;2.40;;
32082;SDS011;18597;48.328;7.932;2022-09-21T07:13:17;10.30;;;9.23;;
32082;SDS011;18597;48.328;7.932;2022-09-21T07:15:43;3.67;;;2.43;;
32082;SDS011;18597;48.328;7.932;2022-09-21T07:18:11;7.47;;;2.47;;
32082;SDS011;18597;48.328;7.932;2022-09-21T07:20:38;3.10;;;2.93;;
32082;SDS011;18597;48.328;7.932;2022-09-21T07:23:08;4.97;;;4.37;;
32082;SDS011;18597;48.328;7.932;2022-09-21T07:25:39;4.23;;;3.90;;
32082;SDS011;18597;48.328;7.932;2022-09-21T07:28:08;4.50;;;3.87;;
32082;SDS011;18597;48.328;7.932;2022-09-21T07:30:35;3.23;;;2.93;;
32082;SDS011;18597;48.328;7.932;2022-09-21T07:33:04;3.20;;;2.90;;
32082;SDS011;18597;48.328;7.932;2022-09-21T07:35:30;9.17;;;2.93;;
32082;SDS011;18597;48.328;7.932;2022-09-21T07:37:57;5.37;;;2.93;;
32082;SDS011;18597;48.328;7.932;2022-09-21T07:40:24;2.73;;;2.53;;
32082;SDS011;18597;48.328;7.932;2022-09-21T07:42:50;3.42;;;3.22;;
32082;SDS011;18597;48.328;7.932;2022-09-21T07:45:16;6.40;;;2.83;;
32082;SDS011;18597;48.328;7.932;2022-09-21T07:47:43;2.63;;;2.42;;
32082;SDS011;18597;48.328;7.932;2022-09-21T07:50:09;4.75;;;3.08;;
32082;SDS011;18597;48.328;7.932;2022-09-21T07:52:35;2.53;;;2.33;;
32082;SDS011;18597;48.328;7.932;2022-09-21T07:55:01;2.92;;;2.72;;
32082;SDS011;18597;48.328;7.932;2022-09-21T07:57:27;2.75;;;2.65;;
32082;SDS011;18597;48.328;7.932;2022-09-21T08:00:13;2.45;;;2.35;;
32082;SDS011;18597;48.328;7.932;2022-09-21T08:02:39;2.28;;;2.28;;
32082;SDS011;18597;48.328;7.932;2022-09-21T08:05:05;2.28;;;2.25;;
32082;SDS011;18597;48.328;7.932;2022-09-21T08:07:31;2.47;;;2.28;;
32082;SDS011;18597;48.328;7.932;2022-09-21T08:09:57;2.60;;;2.50;;
32082;SDS011;18597;48.328;7.932;2022-09-21T08:12:22;2.63;;;2.17;;
32082;SDS011;18597;48.328;7.932;2022-09-21T08:14:48;1.50;;;1.50;;
32082;SDS011;18597;48.328;7.932;2022-09-21T08:17:14;2.57;;;2.37;;
32082;SDS011;18597;48.328;7.932;2022-09-21T08:19:40;2.20;;;1.70;;
32082;SDS011;18597;48.328;7.932;2022-09-21T08:22:06;5.50;;;2.03;;
32082;SDS011;18597;48.328;7.932;2022-09-21T08:24:32;4.00;;;2.60;;
32082;SDS011;18597;48.328;7.932;2022-09-21T08:26:59;2.60;;;2.40;;
32082;SDS011;18597;48.328;7.932;2022-09-21T08:29:25;2.77;;;2.57;;
32082;SDS011;18597;48.328;7.932;2022-09-21T08:31:51;2.47;;;2.37;;
32082;SDS011;18597;48.328;7.932;2022-09-21T08:34:17;2.60;;;2.40;;
32082;SDS011;18597;48.328;7.932;2022-09-21T08:36:44;5.83;;;2.80;;
32082;SDS011;18597;48.328;7.932;2022-09-21T08:39:10;2.67;;;2.40;;
32082;SDS011;18597;48.328;7.932;2022-09-21T08:45:01;2.37;;;2.27;;
32082;SDS011;18597;48.328;7.932;2022-09-21T08:47:37;2.47;;;2.10;;
32082;SDS011;18597;48.328;7.932;2022-09-21T08:50:45;4.87;;;2.37;;
32082;SDS011;18597;48.328;7.932;2022-09-21T08:53:06;3.60;;;2.83;;
32082;SDS011;18597;48.328;7.932;2022-09-21T08:55:39;3.07;;;2.40;;
32082;SDS011;18597;48.328;7.932;2022-09-21T08:58:36;2.73;;;2.53;;
32082;SDS011;18597;48.328;7.932;2022-09-21T09:01:01;3.20;;;2.30;;
32082;SDS011;18597;48.328;7.932;2022-09-21T09:03:58;4.00;;;1.50;;
32082;SDS011;18597;48.328;7.932;2022-09-21T09:10:02;2.67;;;2.07;;
32082;SDS011;18597;48.328;7.932;2022-09-21T09:13:06;3.33;;;2.20;;
32082;SDS011;18597;48.328;7.932;2022-09-21T09:19:16;1.93;;;1.80;;
32082;SDS011;18597;48.328;7.932;2022-09-21T09:22:04;1.10;;;1.10;;
32082;SDS011;18597;48.328;7.932;2022-09-21T09:24:44;3.80;;;2.10;;
32082;SDS011;18597;48.328;7.932;2022-09-21T09:27:16;2.23;;;2.03;;
32082;SDS011;18597;48.328;7.932;2022-09-21T09:30:07;1.80;;;1.67;;
32082;SDS011;18597;48.328;7.932;2022-09-21T09:35:37;2.00;;;1.60;;
32082;SDS011;18597;48.328;7.932;2022-09-21T09:38:16;8.23;;;2.30;;
32082;SDS011;18597;48.328;7.932;2022-09-21T09:50:02;2.43;;;1.30;;
32082;SDS011;18597;48.328;7.932;2022-09-21T09:52:52;2.40;;;1.60;;
32082;SDS011;18597;48.328;7.932;2022-09-21T09:55:37;2.50;;;1.33;;
32082;SDS011;18597;48.328;7.932;2022-09-21T09:58:15;2.07;;;1.30;;
32082;SDS011;18597;48.328;7.932;2022-09-21T10:00:49;1.27;;;1.27;;
32082;SDS011;18597;48.328;7.932;2022-09-21T10:03:19;6.00;;;1.30;;
32082;SDS011;18597;48.328;7.932;2022-09-21T10:05:48;1.97;;;1.37;;
32082;SDS011;18597;48.328;7.932;2022-09-21T10:08:46;1.50;;;1.30;;
32082;SDS011;18597;48.328;7.932;2022-09-21T10:11:06;2.20;;;1.70;;
32082;SDS011;18597;48.328;7.932;2022-09-21T10:13:35;2.10;;;1.73;;
32082;SDS011;18597;48.328;7.932;2022-09-21T10:16:23;2.87;;;1.60;;
32082;SDS011;18597;48.328;7.932;2022-09-21T10:18:52;3.43;;;2.00;;
32082;SDS011;18597;48.328;7.932;2022-09-21T10:21:23;8.60;;;1.53;;
32082;SDS011;18597;48.328;7.932;2022-09-21T10:23:58;3.60;;;1.50;;
32082;SDS011;18597;48.328;7.932;2022-09-21T10:26:31;2.50;;;1.43;;
32082;SDS011;18597;48.328;7.932;2022-09-21T10:32:04;0.80;;;0.80;;
32082;SDS011;18597;48.328;7.932;2022-09-21T10:35:18;0.60;;;0.60;;
32082;SDS011;18597;48.328;7.932;2022-09-21T10:37:45;1.90;;;1.10;;
32082;SDS011;18597;48.328;7.932;2022-09-21T10:42:50;2.80;;;1.30;;
32082;SDS011;18597;48.328;7.932;2022-09-21T10:45:22;1.80;;;1.20;;
32082;SDS011;18597;48.328;7.932;2022-09-21T10:47:56;1.00;;;1.00;;
32082;SDS011;18597;48.328;7.932;2022-09-21T10:50:40;0.80;;;0.80;;
32082;SDS011;18597;48.328;7.932;2022-09-21T10:53:10;1.20;;;1.20;;
32082;SDS011;18597;48.328;7.932;2022-09-21T10:56:18;1.03;;;0.97;;
32082;SDS011;18597;48.328;7.932;2022-09-21T11:01:46;1.70;;;0.87;;
32082;SDS011;18597;48.328;7.932;2022-09-21T11:04:18;0.80;;;0.80;;
32082;SDS011;18597;48.328;7.932;2022-09-21T11:07:09;1.17;;;0.70;;
32082;SDS011;18597;48.328;7.932;2022-09-21T11:09:58;1.30;;;0.70;;
32082;SDS011;18597;48.328;7.932;2022-09-21T11:12:52;0.70;;;0.70;;
32082;SDS011;18597;48.328;7.932;2022-09-21T11:15:55;0.90;;;0.90;;
32082;SDS011;18597;48.328;7.932;2022-09-21T11:19:06;1.10;;;0.80;;
32082;SDS011;18597;48.328;7.932;2022-09-21T11:22:06;2.50;;;0.80;;
32082;SDS011;18597;48.328;7.932;2022-09-21T11:25:19;4.07;;;3.10;;
32082;SDS011;18597;48.328;7.932;2022-09-21T11:28:21;2.57;;;1.60;;
32082;SDS011;18597;48.328;7.932;2022-09-21T11:31:03;4.40;;;4.03;;
32082;SDS011;18597;48.328;7.932;2022-09-21T11:39:49;1.23;;;1.13;;
32082;SDS011;18597;48.328;7.932;2022-09-21T11:42:54;4.73;;;1.17;;
32082;SDS011;18597;48.328;7.932;2022-09-21T11:49:40;1.03;;;0.80;;
32082;SDS011;18597;48.328;7.932;2022-09-21T11:58:50;1.03;;;0.97;;
32082;SDS011;18597;48.328;7.932;2022-09-21T12:01:49;2.23;;;0.93;;
32082;SDS011;18597;48.328;7.932;2022-09-21T12:11:23;1.50;;;1.40;;
32082;SDS011;18597;48.328;7.932;2022-09-21T12:14:22;5.93;;;3.30;;
32082;SDS011;18597;48.328;7.932;2022-09-21T12:17:20;8.60;;;5.33;;
32082;SDS011;18597;48.328;7.932;2022-09-21T12:20:19;5.07;;;1.50;;
32082;SDS011;18597;48.328;7.932;2022-09-21T12:23:22;0.80;;;0.80;;
32082;SDS011;18597;48.328;7.932;2022-09-21T12:25:57;2.50;;;0.90;;
32082;SDS011;18597;48.328;7.932;2022-09-21T12:28:27;2.10;;;0.90;;
32082;SDS011;18597;48.328;7.932;2022-09-21T12:31:01;1.13;;;0.67;;
32082;SDS011;18597;48.328;7.932;2022-09-21T12:33:37;2.50;;;1.50;;
32082;SDS011;18597;48.328;7.932;2022-09-21T12:36:19;2.47;;;2.37;;
32082;SDS011;18597;48.328;7.932;2022-09-21T12:38:57;1.00;;;0.80;;
32082;SDS011;18597;48.328;7.932;2022-09-21T12:41:38;0.60;;;0.60;;
32082;SDS011;18597;48.328;7.932;2022-09-21T12:58:21;5.53;;;0.83;;
32082;SDS011;18597;48.328;7.932;2022-09-21T13:10:07;0.40;;;0.40;;
32082;SDS011;18597;48.328;7.932;2022-09-21T13:12:44;0.60;;;0.60;;
32082;SDS011;18597;48.328;7.932;2022-09-21T13:15:16;2.93;;;1.00;;
32082;SDS011;18597;48.328;7.932;2022-09-21T13:18:00;2.27;;;0.87;;
32082;SDS011;18597;48.328;7.932;2022-09-21T13:20:34;0.70;;;0.70;;
32082;SDS011;18597;48.328;7.932;2022-09-21T13:23:03;1.23;;;0.83;;
32082;SDS011;18597;48.328;7.932;2022-09-21T13:25:37;1.20;;;1.10;;
32082;SDS011;18597;48.328;7.932;2022-09-21T13:28:19;0.93;;;0.93;;
32082;SDS011;18597;48.328;7.932;2022-09-21T13:30:48;0.40;;;0.40;;
32082;SDS011;18597;48.328;7.932;2022-09-21T13:34:46;0.50;;;0.50;;
32082;SDS011;18597;48.328;7.932;2022-09-21T13:37:25;0.60;;;0.60;;
32082;SDS011;18597;48.328;7.932;2022-09-21T13:42:42;0.80;;;0.80;;
32082;SDS011;18597;48.328;7.932;2022-09-21T13:47:53;1.37;;;0.70;;
32082;SDS011;18597;48.328;7.932;2022-09-21T13:50:24;6.57;;;0.83;;
32082;SDS011;18597;48.328;7.932;2022-09-21T13:53:24;0.87;;;0.87;;
32082;SDS011;18597;48.328;7.932;2022-09-21T13:56:00;1.00;;;1.00;;
32082;SDS011;18597;48.328;7.932;2022-09-21T13:58:35;0.50;;;0.50;;
32082;SDS011;18597;48.328;7.932;2022-09-21T14:01:14;0.50;;;0.50;;
32082;SDS011;18597;48.328;7.932;2022-09-21T14:03:49;0.87;;;0.87;;
32082;SDS011;18597;48.328;7.932;2022-09-21T14:06:22;0.80;;;0.80;;
32082;SDS011;18597;48.328;7.932;2022-09-21T14:08:59;0.50;;;0.50;;
32082;SDS011;18597;48.328;7.932;2022-09-21T14:11:32;0.83;;;0.83;;
32082;SDS011;18597;48.328;7.932;2022-09-21T14:16:49;0.60;;;0.60;;
32082;SDS011;18597;48.328;7.932;2022-09-21T14:24:48;0.40;;;0.40;;
32082;SDS011;18597;48.328;7.932;2022-09-21T14:27:22;0.50;;;0.50;;
32082;SDS011;18597;48.328;7.932;2022-09-21T14:30:22;1.07;;;0.50;;
32082;SDS011;18597;48.328;7.932;2022-09-21T14:33:00;2.93;;;0.50;;
32082;SDS011;18597;48.328;7.932;2022-09-21T14:35:44;1.90;;;0.50;;
32082;SDS011;18597;48.328;7.932;2022-09-21T14:38:13;3.33;;;0.57;;
32082;SDS011;18597;48.328;7.932;2022-09-21T14:40:56;0.83;;;0.57;;
32082;SDS011;18597;48.328;7.932;2022-09-21T14:43:28;2.87;;;0.80;;
32082;SDS011;18597;48.328;7.932;2022-09-21T14:53:00;1.50;;;0.50;;
32082;SDS011;18597;48.328;7.932;2022-09-21T15:02:38;1.30;;;0.67;;
32082;SDS011;18597;48.328;7.932;2022-09-21T15:05:39;0.50;;;0.50;;
32082;SDS011;18597;48.328;7.932;2022-09-21T15:11:11;0.73;;;0.73;;
32082;SDS011;18597;48.328;7.932;2022-09-21T15:16:38;0.37;;;0.37;;
32082;SDS011;18597;48.328;7.932;2022-09-21T15:21:52;1.57;;;0.60;;
32082;SDS011;18597;48.328;7.932;2022-09-21T15:24:28;0.50;;;0.50;;
32082;SDS011;18597;48.328;7.932;2022-09-21T15:27:01;1.73;;;0.50;;
32082;SDS011;18597;48.328;7.932;2022-09-21T15:29:35;2.17;;;0.60;;
32082;SDS011;18597;48.328;7.932;2022-09-21T15:32:02;2.47;;;0.60;;
32082;SDS011;18597;48.328;7.932;2022-09-21T15:34:29;2.63;;;0.60;;
32082;SDS011;18597;48.328;7.932;2022-09-21T15:37:14;1.07;;;0.77;;
32082;SDS011;18597;48.328;7.932;2022-09-21T15:39:42;1.03;;;1.03;;
32082;SDS011;18597;48.328;7.932;2022-09-21T15:44:43;1.07;;;0.63;;
32082;SDS011;18597;48.328;7.932;2022-09-21T15:47:12;1.30;;;0.67;;
32082;SDS011;18597;48.328;7.932;2022-09-21T15:49:43;5.00;;;0.80;;
32082;SDS011;18597;48.328;7.932;2022-09-21T15:55:09;0.90;;;0.90;;
32082;SDS011;18597;48.328;7.932;2022-09-21T15:57:45;1.23;;;1.23;;
32082;SDS011;18597;48.328;7.932;2022-09-21T16:00:19;1.30;;;0.87;;
32082;SDS011;18597;48.328;7.932;2022-09-21T16:03:05;1.43;;;1.03;;
32082;SDS011;18597;48.328;7.932;2022-09-21T16:05:46;0.80;;;0.80;;
32082;SDS011;18597;48.328;7.932;2022-09-21T16:08:17;0.47;;;0.47;;
32082;SDS011;18597;48.328;7.932;2022-09-21T16:14:13;1.13;;;0.80;;
32082;SDS011;18597;48.328;7.932;2022-09-21T16:22:26;1.63;;;1.50;;
32082;SDS011;18597;48.328;7.932;2022-09-21T16:25:18;0.70;;;0.67;;
32082;SDS011;18597;48.328;7.932;2022-09-21T16:27:59;0.53;;;0.53;;
32082;SDS011;18597;48.328;7.932;2022-09-21T16:30:46;0.60;;;0.60;;
32082;SDS011;18597;48.328;7.932;2022-09-21T16:38:56;5.53;;;1.70;;
32082;SDS011;18597;48.328;7.932;2022-09-21T16:41:23;1.90;;;0.97;;
32082;SDS011;18597;48.328;7.932;2022-09-21T16:43:59;1.00;;;1.00;;
32082;SDS011;18597;48.328;7.932;2022-09-21T16:46:26;2.73;;;1.10;;
32082;SDS011;18597;48.328;7.932;2022-09-21T16:48:53;0.53;;;0.53;;
32082;SDS011;18597;48.328;7.932;2022-09-21T16:51:19;4.23;;;1.40;;
32082;SDS011;18597;48.328;7.932;2022-09-21T16:53:50;0.87;;;0.60;;
32082;SDS011;18597;48.328;7.932;2022-09-21T16:56:16;1.90;;;0.60;;
32082;SDS011;18597;48.328;7.932;2022-09-21T16:58:42;1.67;;;1.30;;
32082;SDS011;18597;48.328;7.932;2022-09-21T17:05:17;0.60;;;0.60;;
32082;SDS011;18597;48.328;7.932;2022-09-21T17:07:48;1.20;;;1.20;;
32082;SDS011;18597;48.328;7.932;2022-09-21T17:10:17;0.83;;;0.83;;
32082;SDS011;18597;48.328;7.932;2022-09-21T17:12:45;3.33;;;1.13;;
32082;SDS011;18597;48.328;7.932;2022-09-21T17:15:11;2.17;;;1.00;;
32082;SDS011;18597;48.328;7.932;2022-09-21T17:17:38;4.80;;;2.27;;
32082;SDS011;18597;48.328;7.932;2022-09-21T17:20:07;6.83;;;3.80;;
32082;SDS011;18597;48.328;7.932;2022-09-21T17:22:44;1.93;;;1.93;;
32082;SDS011;18597;48.328;7.932;2022-09-21T17:25:10;0.97;;;0.93;;
32082;SDS011;18597;48.328;7.932;2022-09-21T17:27:36;1.40;;;1.30;;
32082;SDS011;18597;48.328;7.932;2022-09-21T17:30:05;1.40;;;1.30;;
32082;SDS011;18597;48.328;7.932;2022-09-21T17:32:37;1.07;;;1.07;;
32082;SDS011;18597;48.328;7.932;2022-09-21T17:35:12;0.90;;;0.90;;
32082;SDS011;18597;48.328;7.932;2022-09-21T17:37:50;1.33;;;0.83;;
32082;SDS011;18597;48.328;7.932;2022-09-21T17:40:16;0.90;;;0.90;;
32082;SDS011;18597;48.328;7.932;2022-09-21T17:42:43;3.23;;;3.03;;
32082;SDS011;18597;48.328;7.932;2022-09-21T17:45:14;3.73;;;2.00;;
32082;SDS011;18597;48.328;7.932;2022-09-21T17:48:06;2.73;;;2.57;;
32082;SDS011;18597;48.328;7.932;2022-09-21T17:50:42;3.60;;;1.33;;
32082;SDS011;18597;48.328;7.932;2022-09-21T17:53:08;3.23;;;2.80;;
32082;SDS011;18597;48.328;7.932;2022-09-21T17:55:56;6.77;;;4.17;;
32082;SDS011;18597;48.328;7.932;2022-09-21T17:58:31;4.77;;;3.87;;
32082;SDS011;18597;48.328;7.932;2022-09-21T18:01:17;13.37;;;6.53;;
32082;SDS011;18597;48.328;7.932;2022-09-21T18:03:54;7.33;;;4.43;;